Aérodrome :
LOGIN :

S'inscrire | Disclaimer

   EN    FR    IT 

 










Légende :    VFR   VFR Marginal   IFR   IFR Intensif   IFR Très Intensif
Visi : 
Plafond : 
>= 8 km
>= 3000ft
5 à 8 km
1000 à 3000 ft
1500m à 5 km
500 à 1000 ft
800 à 1500m
200 à 500 ft
< 800m
< 200 ft
Symboles :   Orages  Brouillard  Fortes neiges  Fortes précipitations  Vent > 20 kt
SIGMETs :   Divers  Orages  Givrage  Turbulence  Onde Orograph.  Cendres Volcan.







- Altitude de l'aérodrome : 125 ft
- Code IATA : MGL


EDLN - Mönchengladbach

DERNIER METAR :
  • 210920Z 13011KT 110V170 CAVOK 18/04 Q1020

METARs EXPIRÉS :
  • 210850Z 14011KT CAVOK 17/04 Q1020
  • 210820Z 14009KT 110V170 CAVOK 16/04 Q1020
  • 210750Z 14008KT CAVOK 15/04 Q1020
  • 210720Z 12009KT CAVOK 13/05 Q1020
  • 210650Z 12004KT CAVOK 11/05 Q1021

TAF TAF EDLN
Valide du 21 à 09h jusqu'au 21 à 18h UTC


210800Z 2109/2118 12011KT CAVOK
BECMG 2116/2118 12006KT
Pas de NOTAMs connus pour ce terrain.



MET'MAP, la Météo Aéronautique d'un coup d'oeil ! - Copyright ORBIFLY Décembre 2007 - Disclaimer

ORBIFLY MET'MAP TEAM :

Programmation & Développement : Alexandra Zaïnal
Conception & Développement : Baudouin d'Aumeries
Co-Programmation & Développement : Marc-Olivier Méhu
Soutien technique & logistique : Manuel Goepfert

Contact : metmap@orbifly.com




SOURCES & CREDITS :

   NOAA